Time,TemperatureF,DewpointF,PressureIn,WindDirection,WindDirectionDegrees,WindSpeedMPH,WindSpeedGustMPH,Humidity,HourlyPrecipIn,Conditions,Clouds,dailyrainin,SoftwareType,DateUTC
2013-02-12 00:00:00,23.5,15.7,31.25,WSW,253,6.3,10.5,71,0.00,,OVC,0.00,VWS V13.01,2013-02-12 06:00:00,
2013-02-12 00:05:00,23.5,15.7,31.28,WSW,252,5.4,7.6,71,0.00,,OVC,0.00,VWS V13.01,2013-02-12 06:05:00,
2013-02-12 00:10:00,23.4,15.5,31.28,SW,232,4.9,8.7,71,0.00,,OVC,0.00,VWS V13.01,2013-02-12 06:10:00,
2013-02-12 00:15:00,23.2,15.4,31.28,WSW,240,2.7,4.0,71,0.00,,OVC,0.00,VWS V13.01,2013-02-12 06:15:00,
2013-02-12 00:20:00,23.0,15.6,31.28,SW,227,10.1,13.2,73,0.00,,OVC,0.00,VWS V13.01,2013-02-12 06:20:00,
2013-02-12 00:25:00,22.8,15.4,31.28,WSW,257,6.3,8.7,73,0.00,,OVC,0.00,VWS V13.01,2013-02-12 06:25:00,
2013-02-12 00:31:00,22.8,15.4,31.28,WSW,238,5.4,7.2,73,0.00,,OVC,0.00,VWS V13.01,2013-02-12 06:31:00,
2013-02-12 00:36:00,22.5,15.1,31.34,SW,231,8.1,8.3,73,0.00,,OVC,0.00,VWS V13.01,2013-02-12 06:36:00,
2013-02-12 00:41:00,22.3,14.9,31.34,SW,235,4.0,6.3,73,0.00,,OVC,0.00,VWS V13.01,2013-02-12 06:41:00,
2013-02-12 00:46:00,22.3,14.9,31.37,SW,235,6.3,8.3,73,0.00,,OVC,0.00,VWS V13.01,2013-02-12 06:46:00,
2013-02-12 00:51:00,22.1,14.8,31.37,West,264,10.1,10.1,73,0.00,,OVC,0.00,VWS V13.01,2013-02-12 06:51:00,
2013-02-12 00:56:00,22.1,14.8,31.37,WNW,295,8.7,10.1,73,0.00,,OVC,0.00,VWS V13.01,2013-02-12 06:56:00,
2013-02-12 01:01:00,22.1,14.8,31.37,NW,312,7.6,7.6,73,0.00,,OVC,0.00,VWS V13.01,2013-02-12 07:01:00,
2013-02-12 01:06:00,22.1,14.8,31.37,SW,236,5.4,8.7,73,0.00,,OVC,0.00,VWS V13.01,2013-02-12 07:06:00,
2013-02-12 01:11:00,21.9,14.6,31.37,WSW,238,3.6,6.3,73,0.00,,OVC,0.00,VWS V13.01,2013-02-12 07:11:00,
2013-02-12 01:16:00,21.9,14.6,31.37,WSW,242,3.6,5.4,73,0.00,,OVC,0.00,VWS V13.01,2013-02-12 07:16:00,
2013-02-12 01:21:00,21.9,14.6,31.40,West,265,2.7,4.9,73,0.00,,OVC,0.00,VWS V13.01,2013-02-12 07:21:00,
2013-02-12 01:26:00,21.9,14.6,31.40,SW,235,3.1,6.3,73,0.00,,OVC,0.00,VWS V13.01,2013-02-12 07:26:00,
2013-02-12 01:31:00,21.9,14.6,31.40,SSW,207,3.1,4.0,73,0.00,,OVC,0.00,VWS V13.01,2013-02-12 07:31:00,
2013-02-12 01:36:00,21.9,14.6,31.40,WSW,258,5.8,5.8,73,0.00,,OVC,0.00,VWS V13.01,2013-02-12 07:36:00,
2013-02-12 01:41:00,21.9,14.6,31.40,West,280,0.0,4.9,73,0.00,,OVC,0.00,VWS V13.01,2013-02-12 07:41:00,
2013-02-12 01:46:00,21.9,14.6,31.40,West,259,3.1,3.6,73,0.00,,OVC,0.00,VWS V13.01,2013-02-12 07:46:00,
2013-02-12 01:51:00,21.9,14.6,31.43,West,274,4.9,5.4,73,0.00,,OVC,0.00,VWS V13.01,2013-02-12 07:51:00,
2013-02-12 01:56:00,21.9,14.6,31.43,WNW,291,2.7,3.6,73,0.00,,OVC,0.00,VWS V13.01,2013-02-12 07:56:00,
2013-02-12 02:01:00,21.9,14.6,31.43,West,269,0.0,5.4,73,0.00,,OVC,0.00,VWS V13.01,2013-02-12 08:01:00,
2013-02-12 02:06:00,21.9,14.6,31.43,West,273,5.8,7.6,73,0.00,,OVC,0.00,VWS V13.01,2013-02-12 08:06:00,
2013-02-12 02:11:00,21.9,14.6,31.43,WSW,252,4.0,4.9,73,0.00,,OVC,0.00,VWS V13.01,2013-02-12 08:11:00,
2013-02-12 02:16:00,21.9,14.6,31.43,West,280,3.6,5.8,73,0.00,,OVC,0.00,VWS V13.01,2013-02-12 08:16:00,
2013-02-12 02:21:00,21.9,14.6,31.43,WSW,242,5.8,5.8,73,0.00,,OVC,0.00,VWS V13.01,2013-02-12 08:21:00,
2013-02-12 02:26:00,21.7,14.4,31.43,WSW,254,6.3,6.3,73,0.00,,OVC,0.00,VWS V13.01,2013-02-12 08:26:00,
2013-02-12 02:31:00,21.6,14.2,31.43,SW,227,4.0,4.0,73,0.00,,OVC,0.00,VWS V13.01,2013-02-12 08:31:00,
2013-02-12 02:36:00,21.6,14.2,31.43,SW,228,4.0,4.0,73,0.00,,OVC,0.00,VWS V13.01,2013-02-12 08:36:00,
2013-02-12 02:41:00,21.6,14.2,31.43,West,264,3.6,3.6,73,0.00,,OVC,0.00,VWS V13.01,2013-02-12 08:41:00,
2013-02-12 02:46:00,21.6,14.2,31.43,WSW,241,6.3,7.2,73,0.00,,OVC,0.00,VWS V13.01,2013-02-12 08:46:00,
2013-02-12 02:51:00,21.6,14.2,31.43,WSW,255,5.4,6.3,73,0.00,,OVC,0.00,VWS V13.01,2013-02-12 08:51:00,
2013-02-12 02:56:00,21.4,14.1,31.43,SW,231,4.0,5.4,73,0.00,,OVC,0.00,VWS V13.01,2013-02-12 08:56:00,
2013-02-12 03:00:00,21.4,14.1,31.43,West,272,4.9,4.9,73,0.00,,OVC,0.00,VWS V13.01,2013-02-12 09:00:00,
2013-02-12 03:05:00,21.4,14.1,31.43,WSW,246,5.8,6.3,73,0.00,,OVC,0.00,VWS V13.01,2013-02-12 09:05:00,
2013-02-12 03:10:00,21.4,14.1,31.43,SSW,205,4.0,4.0,73,0.00,,OVC,0.00,VWS V13.01,2013-02-12 09:10:00,
2013-02-12 03:15:00,21.2,13.9,31.43,WSW,248,5.4,5.4,73,0.00,,OVC,0.00,VWS V13.01,2013-02-12 09:15:00,
2013-02-12 03:20:00,21.2,13.9,31.43,West,259,3.6,3.6,73,0.00,,OVC,0.00,VWS V13.01,2013-02-12 09:20:00,
2013-02-12 03:25:00,21.2,13.9,31.43,WSW,253,4.0,4.0,73,0.00,,OVC,0.00,VWS V13.01,2013-02-12 09:25:00,
2013-02-12 03:30:00,21.2,13.9,31.43,SW,234,4.9,4.9,73,0.00,,OVC,0.00,VWS V13.01,2013-02-12 09:30:00,
2013-02-12 03:35:00,21.2,13.9,31.46,WNW,285,3.1,7.6,73,0.00,,OVC,0.00,VWS V13.01,2013-02-12 09:35:00,
2013-02-12 03:40:00,21.2,13.9,31.46,WSW,241,4.0,4.0,73,0.00,,OVC,0.00,VWS V13.01,2013-02-12 09:40:00,
2013-02-12 03:45:00,21.2,13.9,31.46,NNW,328,0.0,4.0,73,0.00,,OVC,0.00,VWS V13.01,2013-02-12 09:45:00,
2013-02-12 03:50:00,21.2,13.9,31.46,WSW,253,3.1,3.1,73,0.00,,OVC,0.00,VWS V13.01,2013-02-12 09:50:00,
2013-02-12 03:55:00,21.4,14.1,31.46,WSW,243,2.7,3.1,73,0.00,,OVC,0.00,VWS V13.01,2013-02-12 09:55:00,
2013-02-12 04:00:00,21.4,14.1,31.46,WSW,247,3.1,3.6,73,0.00,,OVC,0.00,VWS V13.01,2013-02-12 10:00:00,
2013-02-12 04:05:00,21.4,14.1,31.43,WSW,248,3.6,3.6,73,0.00,,OVC,0.00,VWS V13.01,2013-02-12 10:05:00,
2013-02-12 04:10:00,21.4,14.1,31.43,SW,228,6.3,6.3,73,0.00,,OVC,0.00,VWS V13.01,2013-02-12 10:10:00,
2013-02-12 04:15:00,21.4,14.1,31.43,SW,222,3.6,5.8,73,0.00,,OVC,0.00,VWS V13.01,2013-02-12 10:15:00,
2013-02-12 04:20:00,21.2,13.9,31.46,WNW,298,2.7,2.7,73,0.00,,OVC,0.00,VWS V13.01,2013-02-12 10:20:00,
2013-02-12 04:25:00,21.2,13.9,31.46,SSW,206,4.5,4.5,73,0.00,,OVC,0.00,VWS V13.01,2013-02-12 10:25:00,
2013-02-12 04:30:00,21.2,13.9,31.46,West,280,3.6,4.9,73,0.00,,OVC,0.00,VWS V13.01,2013-02-12 10:30:00,
2013-02-12 04:35:00,21.2,13.9,31.46,WSW,243,0.0,3.6,73,0.00,,OVC,0.00,VWS V13.01,2013-02-12 10:35:00,
2013-02-12 04:40:00,21.2,13.9,31.46,WSW,248,4.0,4.0,73,0.00,,OVC,0.00,VWS V13.01,2013-02-12 10:40:00,
2013-02-12 04:45:00,21.2,13.9,31.46,WSW,246,4.0,4.0,73,0.00,,OVC,0.00,VWS V13.01,2013-02-12 10:45:00,
2013-02-12 04:50:00,21.2,13.9,31.46,West,266,4.0,5.4,73,0.00,,OVC,0.00,VWS V13.01,2013-02-12 10:50:00,
2013-02-12 04:55:00,21.2,13.9,31.46,WSW,257,7.2,7.2,73,0.00,,OVC,0.00,VWS V13.01,2013-02-12 10:55:00,
2013-02-12 05:00:00,21.2,13.9,31.46,WSW,245,5.4,6.3,73,0.00,,OVC,0.00,VWS V13.01,2013-02-12 11:00:00,
2013-02-12 05:05:00,21.2,13.9,31.46,SW,229,7.6,7.6,73,0.00,,OVC,0.00,VWS V13.01,2013-02-12 11:05:00,
2013-02-12 05:10:00,21.0,13.7,31.46,NW,323,4.0,4.0,73,0.00,,OVC,0.00,VWS V13.01,2013-02-12 11:10:00,
2013-02-12 05:15:00,21.0,13.7,31.46,West,262,3.1,3.1,73,0.00,,OVC,0.00,VWS V13.01,2013-02-12 11:15:00,
2013-02-12 05:20:00,21.0,13.7,31.46,West,262,5.8,5.8,73,0.00,,OVC,0.00,VWS V13.01,2013-02-12 11:20:00,
2013-02-12 05:25:00,21.0,13.7,31.46,SW,228,5.4,6.3,73,0.00,,OVC,0.00,VWS V13.01,2013-02-12 11:25:00,
2013-02-12 05:30:00,21.0,13.7,31.46,West,278,2.7,2.7,73,0.00,,OVC,0.00,VWS V13.01,2013-02-12 11:30:00,
2013-02-12 05:35:00,21.0,13.7,31.43,WNW,282,2.7,5.4,73,0.00,,OVC,0.00,VWS V13.01,2013-02-12 11:35:00,
2013-02-12 05:40:00,21.0,13.7,31.43,SW,231,5.8,7.6,73,0.00,,OVC,0.00,VWS V13.01,2013-02-12 11:40:00,
2013-02-12 05:45:00,21.0,13.7,31.43,WSW,237,4.0,4.0,73,0.00,,OVC,0.00,VWS V13.01,2013-02-12 11:45:00,
2013-02-12 05:50:00,21.0,13.7,31.43,WSW,241,5.4,6.3,73,0.00,,OVC,0.00,VWS V13.01,2013-02-12 11:50:00,
2013-02-12 05:55:00,21.0,13.7,31.43,WSW,254,3.6,4.0,73,0.00,,OVC,0.00,VWS V13.01,2013-02-12 11:55:00,
2013-02-12 06:00:00,21.0,13.7,31.43,West,262,3.6,5.8,73,0.00,,OVC,0.00,VWS V13.01,2013-02-12 12:00:00,
2013-02-12 06:05:00,21.0,13.7,31.43,West,265,2.7,4.9,73,0.00,,OVC,0.00,VWS V13.01,2013-02-12 12:05:00,
2013-02-12 06:10:00,21.0,13.7,31.43,West,267,8.7,8.7,73,0.00,,OVC,0.00,VWS V13.01,2013-02-12 12:10:00,
2013-02-12 06:15:00,21.0,13.7,31.43,West,269,3.6,3.6,73,0.00,,OVC,0.00,VWS V13.01,2013-02-12 12:15:00,
2013-02-12 06:20:00,21.0,13.7,31.46,SW,229,3.1,4.0,73,0.00,,OVC,0.00,VWS V13.01,2013-02-12 12:20:00,
2013-02-12 06:25:00,21.0,13.7,31.46,SW,233,3.1,3.1,73,0.00,,OVC,0.00,VWS V13.01,2013-02-12 12:25:00,
2013-02-12 06:30:00,21.2,13.9,31.46,WSW,245,5.8,6.3,73,0.00,,OVC,0.00,VWS V13.01,2013-02-12 12:30:00,
2013-02-12 06:35:00,21.2,13.9,31.46,WSW,241,4.0,4.9,73,0.00,,OVC,0.00,VWS V13.01,2013-02-12 12:35:00,
2013-02-12 06:40:00,21.2,13.9,31.46,SW,218,6.3,6.3,73,0.00,,OVC,0.00,VWS V13.01,2013-02-12 12:40:00,
2013-02-12 06:45:00,21.2,13.9,31.46,SW,216,2.2,5.4,73,0.00,,OVC,0.00,VWS V13.01,2013-02-12 12:45:00,
2013-02-12 06:50:00,21.2,13.9,31.46,West,264,2.7,3.1,73,0.00,,OVC,0.00,VWS V13.01,2013-02-12 12:50:00,
2013-02-12 06:55:00,21.2,13.9,31.46,SW,233,3.1,3.6,73,0.00,,OVC,0.00,VWS V13.01,2013-02-12 12:55:00,
2013-02-12 07:00:00,21.2,13.9,31.46,WSW,245,8.1,8.1,73,0.00,,OVC,0.00,VWS V13.01,2013-02-12 13:00:00,
2013-02-12 07:05:00,21.2,13.9,31.43,WSW,258,3.6,3.6,73,0.00,,OVC,0.00,VWS V13.01,2013-02-12 13:05:00,
2013-02-12 07:10:00,21.2,13.9,31.43,West,260,5.4,6.3,73,0.00,,OVC,0.00,VWS V13.01,2013-02-12 13:10:00,
2013-02-12 07:15:00,21.2,13.9,31.43,WSW,241,3.6,3.6,73,0.00,,OVC,0.00,VWS V13.01,2013-02-12 13:15:00,
2013-02-12 07:20:00,21.2,13.9,31.34,SW,232,2.7,3.6,73,0.00,,OVC,0.00,VWS V13.01,2013-02-12 13:20:00,
2013-02-12 07:25:00,21.2,13.9,31.34,SW,224,5.4,7.6,73,0.00,,OVC,0.00,VWS V13.01,2013-02-12 13:25:00,
2013-02-12 07:30:00,21.4,14.1,31.34,SSW,203,4.0,4.9,73,0.00,,OVC,0.00,VWS V13.01,2013-02-12 13:30:00,
2013-02-12 07:35:00,21.4,14.1,31.34,WSW,254,4.0,4.0,73,0.00,,OVC,0.00,VWS V13.01,2013-02-12 13:35:00,
2013-02-12 07:40:00,21.4,14.1,31.34,WSW,243,3.1,4.9,73,0.00,,OVC,0.00,VWS V13.01,2013-02-12 13:40:00,
2013-02-12 07:45:00,21.4,14.1,31.34,WSW,241,5.8,5.8,73,0.00,,OVC,0.00,VWS V13.01,2013-02-12 13:45:00,
2013-02-12 07:50:00,21.4,14.1,31.37,SSW,210,4.0,6.3,73,0.00,,OVC,0.00,VWS V13.01,2013-02-12 13:50:00,
2013-02-12 07:55:00,21.6,14.2,31.37,WSW,254,6.3,6.3,73,0.00,,OVC,0.00,VWS V13.01,2013-02-12 13:55:00,
2013-02-12 08:00:00,21.6,14.2,31.37,WSW,244,5.4,5.4,73,0.00,,OVC,0.00,VWS V13.01,2013-02-12 14:00:00,
2013-02-12 08:05:00,21.7,14.4,31.40,WSW,254,5.8,6.3,73,0.00,,OVC,0.00,VWS V13.01,2013-02-12 14:05:00,
2013-02-12 08:10:00,21.7,14.4,31.40,SSW,207,5.8,5.8,73,0.00,,OVC,0.00,VWS V13.01,2013-02-12 14:10:00,
2013-02-12 08:15:00,21.7,14.4,31.40,SW,227,7.6,7.6,73,0.00,,OVC,0.00,VWS V13.01,2013-02-12 14:15:00,
2013-02-12 08:20:00,21.9,14.6,31.43,West,275,3.6,5.4,73,0.00,,OVC,0.00,VWS V13.01,2013-02-12 14:20:00,
2013-02-12 08:25:00,21.9,14.1,31.43,West,268,5.8,5.8,71,0.00,,OVC,0.00,VWS V13.01,2013-02-12 14:25:00,
2013-02-12 08:30:00,22.1,14.3,31.43,WSW,251,5.4,5.8,71,0.00,,OVC,0.00,VWS V13.01,2013-02-12 14:30:00,
2013-02-12 08:35:00,22.1,14.3,31.46,WSW,237,4.0,5.8,71,0.00,,OVC,0.00,VWS V13.01,2013-02-12 14:35:00,
2013-02-12 08:40:00,21.9,14.1,31.46,WSW,238,6.3,10.5,71,0.00,,OVC,0.00,VWS V13.01,2013-02-12 14:40:00,
2013-02-12 08:45:00,21.9,14.1,31.46,WSW,241,4.9,11.0,71,0.00,,OVC,0.00,VWS V13.01,2013-02-12 14:45:00,
2013-02-12 08:50:00,21.9,14.1,31.46,WSW,253,6.3,6.7,71,0.00,,OVC,0.00,VWS V13.01,2013-02-12 14:50:00,
2013-02-12 08:55:00,21.9,14.1,31.46,WSW,238,5.4,5.4,71,0.00,,OVC,0.00,VWS V13.01,2013-02-12 14:55:00,
2013-02-12 09:00:00,22.1,14.3,31.46,North,353,4.9,8.1,71,0.00,,OVC,0.00,VWS V13.01,2013-02-12 15:00:00,
2013-02-12 09:05:00,22.3,14.5,31.46,SW,235,5.4,8.3,71,0.00,,OVC,0.00,VWS V13.01,2013-02-12 15:05:00,
2013-02-12 09:10:00,22.5,14.6,31.46,WSW,258,7.2,7.2,71,0.00,,OVC,0.00,VWS V13.01,2013-02-12 15:10:00,
2013-02-12 09:15:00,22.6,14.8,31.46,North,357,3.6,3.6,71,0.00,,OVC,0.00,VWS V13.01,2013-02-12 15:15:00,
2013-02-12 09:20:00,22.8,15.0,31.46,West,264,5.8,5.8,71,0.00,,OVC,0.00,VWS V13.01,2013-02-12 15:20:00,
2013-02-12 09:25:00,22.8,15.0,31.46,West,262,3.6,7.2,71,0.00,,OVC,0.00,VWS V13.01,2013-02-12 15:25:00,
2013-02-12 09:30:00,23.0,15.2,31.46,SW,226,3.6,6.3,71,0.00,,OVC,0.00,VWS V13.01,2013-02-12 15:30:00,
2013-02-12 09:35:00,23.5,15.7,31.46,WSW,253,10.5,10.5,71,0.00,,OVC,0.00,VWS V13.01,2013-02-12 15:35:00,
2013-02-12 09:40:00,23.9,16.0,31.46,WSW,245,4.0,4.0,71,0.00,,OVC,0.00,VWS V13.01,2013-02-12 15:40:00,
2013-02-12 09:45:00,24.1,16.2,31.46,West,276,4.0,5.8,71,0.00,,OVC,0.00,VWS V13.01,2013-02-12 15:45:00,
2013-02-12 09:50:00,24.1,16.2,31.43,West,270,5.8,8.1,71,0.00,,OVC,0.00,VWS V13.01,2013-02-12 15:50:00,
2013-02-12 09:55:00,23.9,16.0,31.43,WSW,254,4.9,5.4,71,0.00,,OVC,0.00,VWS V13.01,2013-02-12 15:55:00,
2013-02-12 10:00:00,24.3,16.4,31.43,West,271,5.8,8.1,71,0.00,,OVC,0.00,VWS V13.01,2013-02-12 16:00:00,
2013-02-12 10:05:00,24.3,16.4,31.46,West,262,6.3,6.3,71,0.00,,OVC,0.00,VWS V13.01,2013-02-12 16:05:00,
2013-02-12 10:10:00,23.9,15.6,31.46,SSW,197,3.6,3.6,70,0.00,,OVC,0.00,VWS V13.01,2013-02-12 16:10:00,
2013-02-12 10:15:00,24.4,16.6,31.46,WSW,246,4.9,6.3,71,0.00,,OVC,0.00,VWS V13.01,2013-02-12 16:15:00,
2013-02-12 10:20:00,24.8,16.4,31.43,SW,215,5.4,5.8,70,0.00,,OVC,0.00,VWS V13.01,2013-02-12 16:20:00,
2013-02-12 10:25:00,25.3,17.0,31.43,West,263,8.7,10.1,70,0.00,,OVC,0.00,VWS V13.01,2013-02-12 16:25:00,
2013-02-12 10:30:00,25.3,17.0,31.43,SW,219,8.3,8.3,70,0.00,,OVC,0.00,VWS V13.01,2013-02-12 16:30:00,
2013-02-12 10:35:00,25.0,16.6,31.43,SW,222,5.8,9.6,70,0.00,,OVC,0.00,VWS V13.01,2013-02-12 16:35:00,
2013-02-12 10:40:00,24.4,16.1,31.43,WSW,244,8.1,8.1,70,0.00,,OVC,0.00,VWS V13.01,2013-02-12 16:40:00,
2013-02-12 10:45:00,24.1,15.8,31.43,West,260,2.2,5.4,70,0.00,,OVC,0.00,VWS V13.01,2013-02-12 16:45:00,
2013-02-12 10:50:00,24.1,15.8,31.46,WNW,291,3.1,3.1,70,0.00,,OVC,0.00,VWS V13.01,2013-02-12 16:50:00,
2013-02-12 10:55:00,24.1,15.8,31.46,SW,220,3.6,6.3,70,0.00,,OVC,0.00,VWS V13.01,2013-02-12 16:55:00,
2013-02-12 10:59:00,24.3,15.9,31.46,West,277,5.4,5.4,70,0.00,,OVC,0.00,VWS V13.01,2013-02-12 16:59:00,
2013-02-12 11:04:00,24.1,15.8,31.46,WSW,250,2.2,3.6,70,0.00,,OVC,0.00,VWS V13.01,2013-02-12 17:04:00,
2013-02-12 11:09:00,24.3,16.4,31.46,SW,218,4.0,4.0,71,0.00,,OVC,0.00,VWS V13.01,2013-02-12 17:09:00,
2013-02-12 11:14:00,24.4,16.6,31.46,WSW,239,5.4,5.4,71,0.00,,OVC,0.00,VWS V13.01,2013-02-12 17:14:00,
2013-02-12 11:19:00,24.6,16.3,31.46,SSW,194,3.1,3.1,70,0.00,,OVC,0.00,VWS V13.01,2013-02-12 17:19:00,
2013-02-12 11:24:00,24.6,16.3,31.46,South,191,8.1,8.1,70,0.00,,OVC,0.00,VWS V13.01,2013-02-12 17:24:00,
2013-02-12 11:29:00,25.0,16.6,31.46,SSW,193,5.8,5.8,70,0.00,,OVC,0.00,VWS V13.01,2013-02-12 17:29:00,
2013-02-12 11:34:00,25.3,17.0,31.46,SW,230,5.4,6.7,70,0.00,,OVC,0.00,VWS V13.01,2013-02-12 17:34:00,
2013-02-12 11:39:00,25.3,17.0,31.46,SSW,209,5.8,5.8,70,0.00,,OVC,0.00,VWS V13.01,2013-02-12 17:39:00,
2013-02-12 11:44:00,25.5,17.1,31.46,SW,223,2.7,2.7,70,0.00,,OVC,0.00,VWS V13.01,2013-02-12 17:44:00,
2013-02-12 11:49:00,25.3,17.0,31.46,South,182,3.1,8.1,70,0.00,,OVC,0.00,VWS V13.01,2013-02-12 17:49:00,
2013-02-12 11:54:00,25.3,17.0,31.46,SW,217,8.3,8.7,70,0.00,,OVC,0.00,VWS V13.01,2013-02-12 17:54:00,
2013-02-12 11:59:00,25.3,17.0,31.46,West,276,4.0,4.0,70,0.00,,OVC,0.00,VWS V13.01,2013-02-12 17:59:00,
2013-02-12 12:04:00,25.3,17.0,31.43,SW,216,8.7,8.7,70,0.00,,OVC,0.00,VWS V13.01,2013-02-12 18:04:00,
2013-02-12 12:09:00,25.5,17.1,31.43,WSW,258,2.7,5.4,70,0.00,,OVC,0.00,VWS V13.01,2013-02-12 18:09:00,
2013-02-12 12:14:00,25.7,17.3,31.43,West,272,4.0,4.0,70,0.00,,OVC,0.00,VWS V13.01,2013-02-12 18:14:00,
2013-02-12 12:19:00,25.7,17.3,31.43,SSW,213,8.1,8.1,70,0.00,,OVC,0.00,VWS V13.01,2013-02-12 18:19:00,
2013-02-12 12:24:00,25.7,17.3,31.43,WSW,256,5.8,5.8,70,0.00,,OVC,0.00,VWS V13.01,2013-02-12 18:24:00,
2013-02-12 12:29:00,25.9,17.5,31.43,SW,236,5.8,5.8,70,0.00,,OVC,0.00,VWS V13.01,2013-02-12 18:29:00,
2013-02-12 12:34:00,26.1,17.6,31.43,West,261,8.1,8.7,70,0.00,,OVC,0.00,VWS V13.01,2013-02-12 18:34:00,
2013-02-12 12:39:00,26.2,17.8,31.43,SW,232,6.7,6.7,70,0.00,,OVC,0.00,VWS V13.01,2013-02-12 18:39:00,
2013-02-12 12:44:00,26.4,18.0,31.43,SSW,194,8.7,8.7,70,0.00,,OVC,0.00,VWS V13.01,2013-02-12 18:44:00,
2013-02-12 12:49:00,26.8,18.3,31.40,West,261,4.0,11.0,70,0.00,,OVC,0.00,VWS V13.01,2013-02-12 18:49:00,
2013-02-12 12:54:00,26.8,18.3,31.40,SW,231,8.3,8.7,70,0.00,,OVC,0.00,VWS V13.01,2013-02-12 18:54:00,
2013-02-12 12:59:00,26.8,18.3,31.40,SSW,203,4.0,4.0,70,0.00,,OVC,0.00,VWS V13.01,2013-02-12 18:59:00,
2013-02-12 13:04:00,26.8,18.3,31.40,WSW,241,5.4,8.3,70,0.00,,OVC,0.00,VWS V13.01,2013-02-12 19:04:00,
2013-02-12 13:09:00,26.6,18.2,31.40,West,261,3.6,4.9,70,0.00,,OVC,0.00,VWS V13.01,2013-02-12 19:09:00,
2013-02-12 13:14:00,26.8,18.3,31.40,South,171,7.6,10.5,70,0.00,,OVC,0.00,VWS V13.01,2013-02-12 19:14:00,
2013-02-12 13:19:00,27.0,18.5,31.40,South,172,6.3,6.3,70,0.00,,OVC,0.00,VWS V13.01,2013-02-12 19:19:00,
2013-02-12 13:24:00,27.0,18.5,31.40,SW,231,8.1,8.1,70,0.00,,OVC,0.00,VWS V13.01,2013-02-12 19:24:00,
2013-02-12 13:29:00,27.0,18.5,31.40,WSW,252,9.2,9.2,70,0.00,,OVC,0.00,VWS V13.01,2013-02-12 19:29:00,
2013-02-12 13:34:00,27.0,18.5,31.40,West,261,3.6,5.4,70,0.00,,OVC,0.00,VWS V13.01,2013-02-12 19:34:00,
2013-02-12 13:39:00,27.0,18.5,31.40,WNW,285,3.6,6.3,70,0.00,,OVC,0.00,VWS V13.01,2013-02-12 19:39:00,
2013-02-12 13:44:00,27.1,18.7,31.40,West,276,6.3,7.2,70,0.00,,OVC,0.00,VWS V13.01,2013-02-12 19:44:00,
2013-02-12 13:49:00,27.3,18.9,31.40,SW,224,5.4,5.4,70,0.00,,OVC,0.00,VWS V13.01,2013-02-12 19:49:00,
2013-02-12 13:54:00,27.7,19.2,31.40,SW,226,3.1,3.6,70,0.00,,OVC,0.00,VWS V13.01,2013-02-12 19:54:00,
2013-02-12 13:59:00,27.7,19.2,31.40,WSW,249,5.8,6.3,70,0.00,,OVC,0.00,VWS V13.01,2013-02-12 19:59:00,
2013-02-12 14:04:00,28.0,19.5,31.40,WSW,241,3.1,5.4,70,0.00,,OVC,0.00,VWS V13.01,2013-02-12 20:04:00,
2013-02-12 14:09:00,27.9,19.4,31.40,WSW,240,4.0,4.0,70,0.00,,OVC,0.00,VWS V13.01,2013-02-12 20:09:00,
2013-02-12 14:14:00,28.0,19.5,31.40,SW,220,3.1,6.3,70,0.00,,OVC,0.00,VWS V13.01,2013-02-12 20:14:00,
2013-02-12 14:19:00,28.4,19.9,31.37,West,262,2.7,6.3,70,0.00,,OVC,0.00,VWS V13.01,2013-02-12 20:19:00,
2013-02-12 14:24:00,28.6,19.6,31.37,SSW,199,4.0,6.3,69,0.00,,OVC,0.00,VWS V13.01,2013-02-12 20:24:00,
2013-02-12 14:29:00,28.9,19.9,31.37,SSW,193,6.3,8.7,69,0.00,,OVC,0.00,VWS V13.01,2013-02-12 20:29:00,
2013-02-12 14:34:00,29.1,20.1,31.37,SW,234,6.3,6.3,69,0.00,,OVC,0.00,VWS V13.01,2013-02-12 20:34:00,
2013-02-12 14:39:00,29.1,20.1,31.37,WSW,237,4.9,8.1,69,0.00,,OVC,0.00,VWS V13.01,2013-02-12 20:39:00,
2013-02-12 14:44:00,29.3,20.3,31.37,WSW,256,5.8,10.5,69,0.00,,OVC,0.00,VWS V13.01,2013-02-12 20:44:00,
2013-02-12 14:49:00,29.3,20.3,31.37,SSW,193,2.7,3.6,69,0.00,,OVC,0.00,VWS V13.01,2013-02-12 20:49:00,
2013-02-12 14:54:00,29.5,20.5,31.37,South,188,6.3,8.3,69,0.00,,OVC,0.00,VWS V13.01,2013-02-12 20:54:00,
2013-02-12 14:59:00,29.5,20.5,31.37,SW,219,7.2,10.5,69,0.00,,OVC,0.00,VWS V13.01,2013-02-12 20:59:00,
2013-02-12 15:04:00,29.5,20.5,31.37,SW,214,5.4,5.8,69,0.00,,OVC,0.00,VWS V13.01,2013-02-12 21:04:00,
2013-02-12 15:09:00,29.7,20.6,31.37,SSW,205,5.4,8.3,69,0.00,,OVC,0.00,VWS V13.01,2013-02-12 21:09:00,
2013-02-12 15:14:00,29.5,20.5,31.37,SW,214,5.8,10.5,69,0.00,,OVC,0.00,VWS V13.01,2013-02-12 21:14:00,
2013-02-12 15:19:00,29.7,20.6,31.34,SSW,213,7.6,7.6,69,0.00,,OVC,0.00,VWS V13.01,2013-02-12 21:19:00,
2013-02-12 15:24:00,29.8,20.8,31.34,SW,216,7.2,11.0,69,0.00,,OVC,0.00,VWS V13.01,2013-02-12 21:24:00,
2013-02-12 15:29:00,29.7,20.6,31.34,SW,218,5.4,7.6,69,0.00,,OVC,0.00,VWS V13.01,2013-02-12 21:29:00,
2013-02-12 15:34:00,29.7,20.6,31.37,SW,235,7.6,7.6,69,0.00,,OVC,0.00,VWS V13.01,2013-02-12 21:34:00,
2013-02-12 15:39:00,29.8,20.8,31.37,WSW,242,4.0,6.3,69,0.00,,OVC,0.00,VWS V13.01,2013-02-12 21:39:00,
2013-02-12 15:44:00,29.8,20.8,31.37,SW,235,9.6,9.6,69,0.00,,OVC,0.00,VWS V13.01,2013-02-12 21:44:00,
2013-02-12 15:49:00,29.8,20.8,31.37,SW,216,7.6,8.7,69,0.00,,OVC,0.00,VWS V13.01,2013-02-12 21:49:00,
2013-02-12 15:54:00,29.8,20.8,31.37,SW,234,7.6,7.6,69,0.00,,OVC,0.00,VWS V13.01,2013-02-12 21:54:00,
2013-02-12 15:59:00,29.8,20.8,31.37,WSW,238,5.8,6.3,69,0.00,,OVC,0.00,VWS V13.01,2013-02-12 21:59:00,
2013-02-12 16:04:00,29.8,20.8,31.37,SW,229,4.9,8.7,69,0.00,,OVC,0.00,VWS V13.01,2013-02-12 22:04:00,
2013-02-12 16:09:00,30.0,21.0,31.37,SW,231,2.7,5.8,69,0.00,,OVC,0.00,VWS V13.01,2013-02-12 22:09:00,
2013-02-12 16:14:00,30.0,21.0,31.37,SW,229,6.3,6.3,69,0.00,,OVC,0.00,VWS V13.01,2013-02-12 22:14:00,
2013-02-12 16:19:00,30.0,21.0,31.34,SW,220,6.3,6.3,69,0.00,,OVC,0.00,VWS V13.01,2013-02-12 22:19:00,
2013-02-12 16:24:00,29.8,20.8,31.34,SSW,212,3.6,3.6,69,0.00,,OVC,0.00,VWS V13.01,2013-02-12 22:24:00,
2013-02-12 16:29:00,29.8,20.8,31.34,SW,228,3.1,8.1,69,0.00,,OVC,0.00,VWS V13.01,2013-02-12 22:29:00,
2013-02-12 16:34:00,29.7,20.6,31.37,WSW,237,3.1,3.6,69,0.00,,OVC,0.00,VWS V13.01,2013-02-12 22:34:00,
2013-02-12 16:39:00,29.5,20.5,31.37,SSW,201,0.0,2.7,69,0.00,,OVC,0.00,VWS V13.01,2013-02-12 22:39:00,
2013-02-12 16:44:00,29.3,20.3,31.37,SSW,213,2.7,5.8,69,0.00,,OVC,0.00,VWS V13.01,2013-02-12 22:44:00,
2013-02-12 16:49:00,29.1,20.1,31.34,SSW,210,3.1,3.6,69,0.00,,OVC,0.00,VWS V13.01,2013-02-12 22:49:00,
2013-02-12 16:54:00,28.8,19.8,31.34,SSW,210,2.7,2.7,69,0.00,,OVC,0.00,VWS V13.01,2013-02-12 22:54:00,
2013-02-12 16:59:00,28.6,19.6,31.34,SSW,212,5.8,5.8,69,0.00,,OVC,0.00,VWS V13.01,2013-02-12 22:59:00,
2013-02-12 17:04:00,28.6,19.6,31.34,SW,226,5.4,5.4,69,0.00,,OVC,0.00,VWS V13.01,2013-02-12 23:04:00,
2013-02-12 17:09:00,28.4,19.9,31.34,South,190,3.1,3.1,70,0.00,,OVC,0.00,VWS V13.01,2013-02-12 23:09:00,
2013-02-12 17:14:00,28.2,19.7,31.34,SSW,195,0.0,3.1,70,0.00,,OVC,0.00,VWS V13.01,2013-02-12 23:14:00,
2013-02-12 17:19:00,27.9,19.4,31.34,SSW,205,6.3,6.3,70,0.00,,OVC,0.00,VWS V13.01,2013-02-12 23:19:00,
2013-02-12 17:24:00,27.7,19.2,31.34,South,186,0.0,0.0,70,0.00,,OVC,0.00,VWS V13.01,2013-02-12 23:24:00,
2013-02-12 17:29:00,27.5,19.0,31.34,SSW,208,0.0,0.0,70,0.00,,OVC,0.00,VWS V13.01,2013-02-12 23:29:00,
2013-02-12 17:34:00,27.1,18.7,31.34,SSW,206,0.0,0.0,70,0.00,,OVC,0.00,VWS V13.01,2013-02-12 23:34:00,
2013-02-12 17:39:00,27.0,18.5,31.34,SSW,213,0.0,0.0,70,0.00,,OVC,0.00,VWS V13.01,2013-02-12 23:39:00,
2013-02-12 17:44:00,26.8,18.3,31.34,SSW,213,0.0,0.0,70,0.00,,OVC,0.00,VWS V13.01,2013-02-12 23:44:00,
2013-02-12 17:49:00,26.4,18.0,31.34,SSW,212,0.0,0.0,70,0.00,,OVC,0.00,VWS V13.01,2013-02-12 23:49:00,
2013-02-12 17:54:00,26.2,18.3,31.34,SSW,212,0.0,0.0,71,0.00,,OVC,0.00,VWS V13.01,2013-02-12 23:54:00,
2013-02-12 17:59:00,26.2,18.3,31.34,SW,214,0.0,0.0,71,0.00,,OVC,0.00,VWS V13.01,2013-02-12 23:59:00,
2013-02-12 18:04:00,26.1,18.1,31.31,SW,214,0.0,0.0,71,0.00,,OVC,0.00,VWS V13.01,2013-02-13 00:04:00,
2013-02-12 18:09:00,26.1,18.1,31.31,SSE,158,0.0,0.0,71,0.00,,OVC,0.00,VWS V13.01,2013-02-13 00:09:00,
2013-02-12 18:14:00,25.9,18.0,31.31,SSE,158,0.0,0.0,71,0.00,,OVC,0.00,VWS V13.01,2013-02-13 00:14:00,
2013-02-12 18:19:00,25.3,17.4,31.31,SSE,158,0.0,0.0,71,0.00,,OVC,0.00,VWS V13.01,2013-02-13 00:19:00,
2013-02-12 18:24:00,25.2,17.2,31.31,SSE,158,0.0,0.0,71,0.00,,OVC,0.00,VWS V13.01,2013-02-13 00:24:00,
2013-02-12 18:29:00,24.8,16.9,31.31,SSE,158,0.0,0.0,71,0.00,,OVC,0.00,VWS V13.01,2013-02-13 00:29:00,
2013-02-12 18:34:00,24.4,16.6,31.31,SSE,158,0.0,0.0,71,0.00,,OVC,0.00,VWS V13.01,2013-02-13 00:34:00,
2013-02-12 18:39:00,24.3,16.4,31.31,SSE,158,0.0,0.0,71,0.00,,OVC,0.00,VWS V13.01,2013-02-13 00:39:00,
2013-02-12 18:44:00,23.9,16.0,31.31,SSE,158,0.0,0.0,71,0.00,,OVC,0.00,VWS V13.01,2013-02-13 00:44:00,
2013-02-12 18:49:00,23.5,15.7,31.31,SSE,158,0.0,0.0,71,0.00,,OVC,0.00,VWS V13.01,2013-02-13 00:49:00,
2013-02-12 18:54:00,23.5,15.7,31.31,SSE,158,0.0,0.0,71,0.00,,OVC,0.00,VWS V13.01,2013-02-13 00:54:00,
2013-02-12 18:59:00,23.2,15.8,31.31,SSE,158,0.0,0.0,73,0.00,,OVC,0.00,VWS V13.01,2013-02-13 00:59:00,
2013-02-12 19:04:00,23.0,15.6,31.31,SSE,158,0.0,0.0,73,0.00,,OVC,0.00,VWS V13.01,2013-02-13 01:04:00,
2013-02-12 19:09:00,23.0,15.6,31.31,SSE,158,0.0,0.0,73,0.00,,OVC,0.00,VWS V13.01,2013-02-13 01:09:00,
2013-02-12 19:14:00,22.8,15.4,31.31,SSE,158,0.0,0.0,73,0.00,,OVC,0.00,VWS V13.01,2013-02-13 01:14:00,
2013-02-12 19:19:00,22.6,15.3,31.31,SSE,158,0.0,0.0,73,0.00,,OVC,0.00,VWS V13.01,2013-02-13 01:19:00,
2013-02-12 19:24:00,22.6,15.3,31.31,SSE,158,0.0,0.0,73,0.00,,OVC,0.00,VWS V13.01,2013-02-13 01:24:00,
2013-02-12 19:29:00,22.5,15.6,31.31,SSE,158,0.0,0.0,74,0.00,,OVC,0.00,VWS V13.01,2013-02-13 01:29:00,
2013-02-12 19:33:00,22.3,15.4,31.22,SSE,158,0.0,0.0,74,0.00,,OVC,0.00,VWS V13.01,2013-02-13 01:33:00,
2013-02-12 19:38:00,22.3,15.4,31.22,SSE,158,0.0,0.0,74,0.00,,OVC,0.00,VWS V13.01,2013-02-13 01:38:00,
2013-02-12 19:43:00,22.3,15.4,31.22,SSE,158,0.0,0.0,74,0.00,,OVC,0.00,VWS V13.01,2013-02-13 01:43:00,
2013-02-12 19:48:00,22.3,15.4,31.19,SSE,158,0.0,0.0,74,0.00,,OVC,0.00,VWS V13.01,2013-02-13 01:48:00,
2013-02-12 19:53:00,22.5,15.6,31.19,SSE,159,0.0,0.0,74,0.00,,OVC,0.00,VWS V13.01,2013-02-13 01:53:00,
2013-02-12 19:58:00,22.5,15.6,31.19,SSW,212,0.0,0.0,74,0.00,,OVC,0.00,VWS V13.01,2013-02-13 01:58:00,
2013-02-12 20:03:00,22.8,16.3,31.19,SSW,212,0.0,0.0,76,0.00,,OVC,0.00,VWS V13.01,2013-02-13 02:03:00,
2013-02-12 20:08:00,22.8,16.3,31.19,SSW,212,0.0,0.0,76,0.00,,OVC,0.00,VWS V13.01,2013-02-13 02:08:00,
2013-02-12 20:13:00,23.0,16.5,31.19,SSW,211,0.0,0.0,76,0.00,,OVC,0.00,VWS V13.01,2013-02-13 02:13:00,
2013-02-12 20:18:00,23.0,16.5,31.19,South,171,3.1,3.1,76,0.00,,OVC,0.00,VWS V13.01,2013-02-13 02:18:00,
2013-02-12 20:23:00,22.8,16.3,31.19,SSW,206,0.0,0.0,76,0.00,,OVC,0.00,VWS V13.01,2013-02-13 02:23:00,
2013-02-12 20:28:00,22.8,16.3,31.19,SSW,199,0.0,0.0,76,0.00,,OVC,0.00,VWS V13.01,2013-02-13 02:28:00,
2013-02-12 20:33:00,23.0,16.5,31.19,SSW,192,0.0,0.0,76,0.00,,OVC,0.00,VWS V13.01,2013-02-13 02:33:00,
2013-02-12 20:38:00,23.4,16.9,31.19,SSW,204,0.0,0.0,76,0.00,,OVC,0.00,VWS V13.01,2013-02-13 02:38:00,
2013-02-12 20:43:00,23.5,17.5,31.19,SSW,198,0.0,0.0,77,0.00,,OVC,0.00,VWS V13.01,2013-02-13 02:43:00,
2013-02-12 20:48:00,24.1,18.0,31.22,SSW,193,0.0,0.0,77,0.00,,OVC,0.00,VWS V13.01,2013-02-13 02:48:00,
2013-02-12 20:53:00,24.4,18.3,31.22,SSW,209,0.0,0.0,77,0.00,,OVC,0.00,VWS V13.01,2013-02-13 02:53:00,
2013-02-12 20:58:00,24.4,18.3,31.22,SW,217,0.0,3.1,77,0.00,,OVC,0.00,VWS V13.01,2013-02-13 02:58:00,
2013-02-12 21:03:00,24.4,18.3,31.25,SSW,195,0.0,0.0,77,0.00,,OVC,0.00,VWS V13.01,2013-02-13 03:03:00,
2013-02-12 21:08:00,24.4,18.3,31.25,South,189,0.0,0.0,77,0.00,,OVC,0.00,VWS V13.01,2013-02-13 03:08:00,
2013-02-12 21:13:00,24.4,18.3,31.25,SW,214,0.0,0.0,77,0.00,,OVC,0.00,VWS V13.01,2013-02-13 03:13:00,
2013-02-12 21:18:00,24.4,18.8,31.28,SSW,194,0.0,3.1,79,0.00,,OVC,0.00,VWS V13.01,2013-02-13 03:18:00,
2013-02-12 21:23:00,25.0,19.3,31.28,SSW,200,2.2,2.2,79,0.00,,OVC,0.00,VWS V13.01,2013-02-13 03:23:00,
2013-02-12 21:28:00,25.2,19.5,31.28,SSW,207,2.7,3.6,79,0.00,,OVC,0.00,VWS V13.01,2013-02-13 03:28:00,
2013-02-12 21:33:00,25.3,19.6,31.28,SSW,209,0.0,2.2,79,0.00,,OVC,0.00,VWS V13.01,2013-02-13 03:33:00,
2013-02-12 21:38:00,25.3,19.6,31.28,SW,225,0.0,0.0,79,0.00,,OVC,0.00,VWS V13.01,2013-02-13 03:38:00,
2013-02-12 21:43:00,25.5,19.8,31.28,SSW,212,2.7,5.4,79,0.00,,OVC,0.00,VWS V13.01,2013-02-13 03:43:00,
2013-02-12 21:48:00,25.5,19.8,31.28,SSW,198,0.0,2.7,79,0.00,,OVC,0.00,VWS V13.01,2013-02-13 03:48:00,
2013-02-12 21:53:00,25.5,19.8,31.28,South,191,4.0,4.0,79,0.00,,OVC,0.00,VWS V13.01,2013-02-13 03:53:00,
2013-02-12 21:58:00,25.3,19.6,31.28,SW,220,2.2,6.3,79,0.00,,OVC,0.00,VWS V13.01,2013-02-13 03:58:00,
2013-02-12 22:03:00,25.3,19.6,31.25,SSW,210,2.2,2.2,79,0.00,,OVC,0.00,VWS V13.01,2013-02-13 04:03:00,
2013-02-12 22:08:00,25.3,19.6,31.25,SSW,200,4.0,4.0,79,0.00,,OVC,0.00,VWS V13.01,2013-02-13 04:08:00,
2013-02-12 22:13:00,25.2,19.5,31.25,SW,226,4.0,7.6,79,0.00,,OVC,0.00,VWS V13.01,2013-02-13 04:13:00,
2013-02-12 22:18:00,25.0,19.3,31.28,SW,224,5.8,6.3,79,0.00,,OVC,0.00,VWS V13.01,2013-02-13 04:18:00,
2013-02-12 22:23:00,25.0,19.3,31.28,South,178,6.3,6.3,79,0.00,,OVC,0.00,VWS V13.01,2013-02-13 04:23:00,
2013-02-12 22:28:00,25.0,19.3,31.28,SSW,194,0.0,3.1,79,0.00,,OVC,0.00,VWS V13.01,2013-02-13 04:28:00,
2013-02-12 22:33:00,24.8,19.1,31.28,SSE,165,0.0,3.6,79,0.00,,OVC,0.00,VWS V13.01,2013-02-13 04:33:00,
2013-02-12 22:38:00,24.6,18.9,31.28,SSW,197,0.0,0.0,79,0.00,,OVC,0.00,VWS V13.01,2013-02-13 04:38:00,
2013-02-12 22:43:00,24.3,18.6,31.28,South,184,3.1,3.1,79,0.00,,OVC,0.00,VWS V13.01,2013-02-13 04:43:00,
2013-02-12 22:48:00,23.9,18.2,31.25,South,177,0.0,3.6,79,0.00,,OVC,0.00,VWS V13.01,2013-02-13 04:48:00,
2013-02-12 22:53:00,23.7,18.1,31.25,SSW,204,0.0,0.0,79,0.00,,OVC,0.00,VWS V13.01,2013-02-13 04:53:00,
2013-02-12 22:58:00,23.7,18.1,31.25,SSW,194,3.1,5.8,79,0.00,,OVC,0.00,VWS V13.01,2013-02-13 04:58:00,
2013-02-12 23:00:00,23.7,18.1,31.25,South,176,2.7,4.0,79,0.00,,OVC,0.00,VWS V13.01,2013-02-13 05:00:00,
2013-02-12 23:05:00,23.7,18.1,31.25,South,186,4.0,4.0,79,0.00,,OVC,0.00,VWS V13.01,2013-02-13 05:05:00,
2013-02-12 23:10:00,23.7,18.5,31.25,South,185,0.0,0.0,80,0.00,,OVC,0.00,VWS V13.01,2013-02-13 05:10:00,
2013-02-12 23:15:00,23.9,18.7,31.25,South,182,4.0,4.0,80,0.00,,OVC,0.00,VWS V13.01,2013-02-13 05:15:00,
2013-02-12 23:20:00,23.9,18.7,31.25,SSW,209,4.0,4.0,80,0.00,,OVC,0.00,VWS V13.01,2013-02-13 05:20:00,
2013-02-12 23:25:00,23.7,18.5,31.25,South,191,3.6,3.6,80,0.00,,OVC,0.00,VWS V13.01,2013-02-13 05:25:00,
2013-02-12 23:30:00,23.9,19.1,31.25,South,180,3.1,4.0,82,0.00,,OVC,0.00,VWS V13.01,2013-02-13 05:30:00,
2013-02-12 23:35:00,24.1,19.2,31.25,SSW,207,2.7,4.9,82,0.00,,OVC,0.00,VWS V13.01,2013-02-13 05:35:00,
2013-02-12 23:40:00,24.1,19.2,31.25,South,191,2.2,4.0,82,0.00,,OVC,0.00,VWS V13.01,2013-02-13 05:40:00,
2013-02-12 23:45:00,24.1,19.7,31.25,SSW,210,3.6,4.0,83,0.00,,OVC,0.00,VWS V13.01,2013-02-13 05:45:00,
2013-02-12 23:50:00,24.3,19.8,31.25,SSW,213,4.9,7.6,83,0.00,,OVC,0.00,VWS V13.01,2013-02-13 05:50:00,
2013-02-12 23:55:00,24.4,20.0,31.25,SSW,204,4.9,4.9,83,0.00,,OVC,0.00,VWS V13.01,2013-02-13 05:55:00,